createdAt,value
2022-10-01T00:00:38.243Z,61.64
2022-10-01T00:01:38.500Z,62.64
2022-10-01T00:02:38.236Z,62.57
2022-10-01T00:03:38.228Z,59.53
2022-10-01T00:04:38.182Z,61.96
2022-10-01T00:05:38.775Z,62.09
2022-10-01T00:06:38.157Z,60.28
2022-10-01T00:07:38.155Z,59.01
2022-10-01T00:08:38.146Z,61.70
2022-10-01T00:09:38.160Z,58.02
2022-10-01T00:10:38.167Z,60.64
2022-10-01T00:11:38.142Z,60.19
2022-10-01T00:12:38.114Z,61.48
2022-10-01T00:13:38.109Z,59.80
2022-10-01T00:14:38.103Z,59.11
2022-10-01T00:15:38.097Z,61.69
2022-10-01T00:16:38.217Z,60.46
2022-10-01T00:17:38.107Z,63.56
2022-10-01T00:18:38.075Z,61.85
2022-10-01T00:19:38.069Z,62.49
2022-10-01T00:20:38.046Z,62.82
2022-10-01T00:21:38.040Z,61.87
2022-10-01T00:22:38.045Z,61.15
2022-10-01T00:23:38.048Z,61.81
2022-10-01T00:24:38.035Z,61.27
2022-10-01T00:25:38.009Z,61.18
2022-10-01T00:26:38.004Z,61.92
2022-10-01T00:27:38.000Z,61.89
2022-10-01T00:28:38.004Z,63.70
2022-10-01T00:29:38.005Z,63.27
2022-10-01T00:30:40.399Z,61.72
2022-10-01T00:31:38.548Z,61.61
2022-10-01T00:32:37.959Z,62.23
2022-10-01T00:33:37.965Z,64.47
2022-10-01T00:34:37.943Z,60.48
2022-10-01T00:35:37.937Z,59.72
2022-10-01T00:36:37.921Z,59.53
2022-10-01T00:37:37.928Z,63.30
2022-10-01T00:38:37.952Z,62.57
2022-10-01T00:39:37.895Z,64.04
2022-10-01T00:40:37.893Z,62.28
2022-10-01T00:41:38.102Z,59.93
2022-10-01T00:42:37.872Z,62.33
2022-10-01T00:43:37.882Z,64.24
2022-10-01T00:44:37.882Z,61.10
2022-10-01T00:45:37.868Z,62.77
2022-10-01T00:46:37.841Z,59.22
2022-10-01T00:47:37.863Z,61.61
2022-10-01T00:48:37.831Z,61.07
2022-10-01T00:49:37.828Z,62.81
2022-10-01T00:50:37.841Z,58.74
2022-10-01T00:51:37.826Z,64.32
2022-10-01T00:52:37.791Z,57.29
2022-10-01T00:53:37.789Z,59.55
2022-10-01T00:54:37.784Z,60.84
2022-10-01T00:55:37.796Z,61.33
2022-10-01T00:56:37.765Z,62.16
2022-10-01T00:57:37.749Z,61.54
2022-10-01T00:58:37.750Z,58.12
2022-10-01T00:59:37.744Z,61.35
2022-10-01T01:00:37.725Z,61.67
2022-10-01T01:01:38.074Z,60.45
2022-10-01T01:02:37.818Z,62.62
2022-10-01T01:03:37.703Z,59.61
2022-10-01T01:04:37.691Z,61.83
2022-10-01T01:05:37.684Z,64.49
2022-10-01T01:06:37.673Z,61.60
2022-10-01T01:07:37.693Z,59.70
2022-10-01T01:08:37.659Z,59.86
2022-10-01T01:09:37.652Z,63.11
2022-10-01T01:10:37.654Z,59.63
2022-10-01T01:11:37.647Z,60.63
2022-10-01T01:12:37.641Z,61.52
2022-10-01T01:13:37.649Z,63.95
2022-10-01T01:14:37.617Z,60.95
2022-10-01T01:15:37.669Z,63.12
2022-10-01T01:16:37.595Z,64.02
2022-10-01T01:17:37.644Z,62.21
2022-10-01T01:18:37.599Z,60.95
2022-10-01T01:19:37.568Z,64.29
2022-10-01T01:20:37.579Z,60.77
2022-10-01T01:21:37.550Z,60.11
2022-10-01T01:22:37.548Z,61.81
2022-10-01T01:23:37.538Z,60.10
2022-10-01T01:24:37.822Z,62.47
2022-10-01T01:25:37.530Z,62.17
2022-10-01T01:26:37.515Z,60.48
2022-10-01T01:27:37.531Z,59.99
2022-10-01T01:28:37.520Z,60.99
2022-10-01T01:29:37.496Z,60.42
2022-10-01T01:30:37.486Z,59.37
2022-10-01T01:31:37.893Z,58.18
2022-10-01T01:32:37.468Z,64.37
2022-10-01T01:33:37.469Z,61.22
2022-10-01T01:34:37.474Z,63.57
2022-10-01T01:35:37.439Z,64.02
2022-10-01T01:36:37.432Z,62.26
2022-10-01T01:37:37.426Z,62.13
2022-10-01T01:38:37.419Z,62.39
2022-10-01T01:39:37.410Z,61.70
2022-10-01T01:40:37.431Z,61.13
2022-10-01T01:41:37.390Z,64.73
2022-10-01T01:42:37.386Z,64.09
2022-10-01T01:43:37.378Z,61.23
2022-10-01T01:44:37.393Z,63.20
2022-10-01T01:45:37.423Z,62.25
2022-10-01T01:46:37.359Z,63.92
2022-10-01T01:47:37.355Z,62.79
2022-10-01T01:48:37.344Z,60.81
2022-10-01T01:49:37.332Z,63.13
2022-10-01T01:50:37.328Z,62.13
2022-10-01T01:51:37.310Z,63.10
2022-10-01T01:52:37.292Z,63.06
2022-10-01T01:53:37.308Z,61.88
2022-10-01T01:54:37.282Z,61.39
2022-10-01T01:55:37.303Z,64.55
2022-10-01T01:56:37.278Z,63.25
2022-10-01T01:57:37.265Z,61.77
2022-10-01T01:58:37.254Z,62.58
2022-10-01T01:59:37.246Z,59.60
2022-10-01T02:00:37.257Z,62.45
2022-10-01T02:01:37.701Z,60.36
2022-10-01T02:02:37.239Z,65.46
2022-10-01T02:03:37.204Z,60.99
2022-10-01T02:04:37.206Z,61.38
2022-10-01T02:05:37.213Z,61.23
2022-10-01T02:06:37.198Z,58.31
2022-10-01T02:07:37.198Z,60.90
2022-10-01T02:08:37.164Z,58.20
2022-10-01T02:09:37.163Z,57.62
2022-10-01T02:10:37.157Z,62.93
2022-10-01T02:11:37.148Z,62.73
2022-10-01T02:12:37.136Z,62.05
2022-10-01T02:13:37.147Z,60.93
2022-10-01T02:14:37.114Z,61.56
2022-10-01T02:15:37.145Z,60.37
2022-10-01T02:16:37.097Z,61.94
2022-10-01T02:17:37.094Z,63.97
2022-10-01T02:18:37.094Z,60.14
2022-10-01T02:19:37.101Z,62.62
2022-10-01T02:20:37.083Z,61.39
2022-10-01T02:21:37.127Z,62.06
2022-10-01T02:22:37.062Z,61.28
2022-10-01T02:23:37.064Z,62.51
2022-10-01T02:24:37.039Z,58.06
2022-10-01T02:25:37.328Z,61.23
2022-10-01T02:26:37.018Z,60.74
2022-10-01T02:27:37.061Z,63.72
2022-10-01T02:28:37.001Z,62.03
2022-10-01T02:29:36.986Z,61.92
2022-10-01T02:30:36.991Z,61.01
2022-10-01T02:31:37.476Z,62.62
2022-10-01T02:32:37.019Z,60.32
2022-10-01T02:33:36.950Z,63.06
2022-10-01T02:34:36.934Z,62.82
2022-10-01T02:35:36.970Z,63.26
2022-10-01T02:36:36.923Z,61.33
2022-10-01T02:37:36.932Z,60.50
2022-10-01T02:38:36.925Z,61.29
2022-10-01T02:39:36.910Z,61.85
2022-10-01T02:40:36.897Z,58.44
2022-10-01T02:41:37.148Z,61.93
2022-10-01T02:42:36.895Z,63.91
2022-10-01T02:43:40.681Z,60.35
2022-10-01T02:44:37.922Z,63.40
2022-10-01T02:45:36.927Z,65.15
2022-10-01T02:46:36.857Z,65.79
2022-10-01T02:47:36.884Z,64.17
2022-10-01T02:48:36.828Z,59.87
2022-10-01T02:49:36.822Z,63.85
2022-10-01T02:50:36.813Z,64.52
2022-10-01T02:51:37.003Z,66.73
2022-10-01T02:52:36.834Z,65.16
2022-10-01T02:53:36.801Z,63.51
2022-10-01T02:54:36.792Z,63.96
2022-10-01T02:55:36.812Z,63.32
2022-10-01T02:56:36.769Z,60.23
2022-10-01T02:57:36.790Z,63.00
2022-10-01T02:58:36.774Z,61.73
2022-10-01T02:59:36.738Z,58.34
2022-10-01T03:00:36.763Z,61.64
2022-10-01T03:01:37.182Z,63.02
2022-10-01T03:02:36.818Z,64.00
2022-10-01T03:03:36.746Z,60.45
2022-10-01T03:04:36.701Z,59.32
2022-10-01T03:05:36.685Z,60.03
2022-10-01T03:06:36.690Z,64.94
2022-10-01T03:07:36.672Z,61.72
2022-10-01T03:08:36.681Z,64.09
2022-10-01T03:09:36.648Z,61.52
2022-10-01T03:10:36.666Z,61.60
2022-10-01T03:11:36.782Z,62.33
2022-10-01T03:12:36.636Z,63.37
2022-10-01T03:13:36.631Z,62.96
2022-10-01T03:14:36.620Z,64.48
2022-10-01T03:15:36.644Z,64.36
2022-10-01T03:16:36.649Z,65.35
2022-10-01T03:17:36.582Z,61.56
2022-10-01T03:18:36.590Z,63.15
2022-10-01T03:19:36.571Z,65.70
2022-10-01T03:20:36.558Z,64.48
2022-10-01T03:21:36.820Z,62.92
2022-10-01T03:22:36.581Z,64.74
2022-10-01T03:23:36.537Z,65.46
2022-10-01T03:24:36.518Z,63.69
2022-10-01T03:25:36.511Z,62.55
2022-10-01T03:26:36.496Z,64.20
2022-10-01T03:27:36.497Z,63.87
2022-10-01T03:28:36.525Z,60.12
2022-10-01T03:29:36.481Z,63.54
2022-10-01T03:30:36.476Z,61.80
2022-10-01T03:31:37.029Z,60.80
2022-10-01T03:32:36.457Z,64.24
2022-10-01T03:33:36.450Z,65.52
2022-10-01T03:34:36.460Z,62.57
2022-10-01T03:35:36.426Z,65.40
2022-10-01T03:36:36.427Z,62.52
2022-10-01T03:37:36.430Z,63.50
2022-10-01T03:38:36.391Z,62.37
2022-10-01T03:39:36.391Z,61.77
2022-10-01T03:40:36.394Z,62.91
2022-10-01T03:41:36.556Z,61.67
2022-10-01T03:42:36.354Z,63.70
2022-10-01T03:43:36.356Z,63.92
2022-10-01T03:44:36.342Z,63.78
2022-10-01T03:45:36.417Z,62.64
2022-10-01T03:46:36.321Z,65.57
2022-10-01T03:47:36.304Z,63.85
2022-10-01T03:48:36.304Z,62.25
2022-10-01T03:49:36.322Z,62.62
2022-10-01T03:50:36.309Z,62.54
2022-10-01T03:51:36.618Z,65.49
2022-10-01T03:52:36.323Z,62.67
2022-10-01T03:53:36.280Z,61.22
2022-10-01T03:54:36.257Z,61.06
2022-10-01T03:55:36.247Z,61.11
2022-10-01T03:56:36.243Z,64.42
2022-10-01T03:57:36.226Z,61.90
2022-10-01T03:58:36.238Z,61.30
2022-10-01T03:59:36.209Z,63.68
2022-10-01T04:00:36.218Z,61.71
2022-10-01T04:01:36.756Z,60.55
2022-10-01T04:02:36.296Z,66.66
2022-10-01T04:03:36.175Z,64.58
2022-10-01T04:04:36.196Z,65.01
2022-10-01T04:05:36.160Z,60.53
2022-10-01T04:06:36.151Z,65.77
2022-10-01T04:07:36.135Z,61.28
2022-10-01T04:08:36.140Z,59.87
2022-10-01T04:09:36.125Z,61.01
2022-10-01T04:10:36.140Z,64.23
2022-10-01T04:11:36.594Z,63.70
2022-10-01T04:12:36.098Z,66.13
2022-10-01T04:13:36.090Z,65.40
2022-10-01T04:14:36.075Z,63.03
2022-10-01T04:15:36.174Z,65.52
2022-10-01T04:16:36.208Z,63.01
2022-10-01T04:17:36.083Z,65.74
2022-10-01T04:18:36.046Z,64.26
2022-10-01T04:19:36.212Z,65.31
2022-10-01T04:20:36.028Z,63.69
2022-10-01T04:21:36.417Z,66.70
2022-10-01T04:22:36.059Z,65.23
2022-10-01T04:23:36.006Z,62.94
2022-10-01T04:24:36.006Z,63.12
2022-10-01T04:25:36.016Z,62.88
2022-10-01T04:26:36.016Z,60.77
2022-10-01T04:27:35.981Z,61.15
2022-10-01T04:28:35.970Z,68.27
2022-10-01T04:29:40.088Z,62.02
2022-10-01T04:30:35.949Z,63.12
2022-10-01T04:31:36.435Z,63.93
2022-10-01T04:32:35.955Z,64.73
2022-10-01T04:33:35.922Z,63.79
2022-10-01T04:34:35.921Z,66.33
2022-10-01T04:35:35.901Z,65.02
2022-10-01T04:36:35.936Z,62.07
2022-10-01T04:37:35.892Z,64.27
2022-10-01T04:38:35.873Z,65.56
2022-10-01T04:39:35.869Z,63.92
2022-10-01T04:40:35.866Z,63.39
2022-10-01T04:41:36.113Z,65.08
2022-10-01T04:42:35.912Z,63.71
2022-10-01T04:43:35.834Z,63.14
2022-10-01T04:44:35.887Z,65.35
2022-10-01T04:45:35.819Z,62.61
2022-10-01T04:46:35.862Z,65.42
2022-10-01T04:47:37.712Z,65.38
2022-10-01T04:48:35.795Z,66.70
2022-10-01T04:49:35.820Z,63.66
2022-10-01T04:50:35.810Z,66.28
2022-10-01T04:51:36.211Z,65.11
2022-10-01T04:52:35.768Z,64.68
2022-10-01T04:53:35.749Z,63.15
2022-10-01T04:54:35.741Z,67.05
2022-10-01T04:55:35.740Z,65.48
2022-10-01T04:56:35.751Z,66.81
2022-10-01T04:57:35.730Z,65.87
2022-10-01T04:58:35.729Z,65.61
2022-10-01T04:59:35.710Z,66.04
2022-10-01T05:00:35.735Z,68.02
2022-10-01T05:01:36.177Z,67.21
2022-10-01T05:02:35.752Z,66.98
2022-10-01T05:03:35.700Z,68.07
2022-10-01T05:04:35.671Z,66.82
2022-10-01T05:05:35.648Z,67.54
2022-10-01T05:06:35.641Z,66.38
2022-10-01T05:07:35.644Z,66.25
2022-10-01T05:08:35.626Z,67.15
2022-10-01T05:09:35.633Z,65.14
2022-10-01T05:10:35.632Z,67.02
2022-10-01T05:11:35.906Z,64.87
2022-10-01T05:12:35.598Z,66.56
2022-10-01T05:13:35.580Z,65.14
2022-10-01T05:14:35.623Z,66.09
2022-10-01T05:15:35.573Z,65.56
2022-10-01T05:16:35.621Z,67.05
2022-10-01T05:17:35.566Z,65.82
2022-10-01T05:18:35.546Z,66.66
2022-10-01T05:19:35.547Z,67.63
2022-10-01T05:20:35.555Z,64.16
2022-10-01T05:21:35.736Z,66.68
2022-10-01T05:22:35.510Z,66.13
2022-10-01T05:23:35.512Z,66.62
2022-10-01T05:24:35.495Z,68.57
2022-10-01T05:25:35.482Z,65.54
2022-10-01T05:26:35.616Z,66.08
2022-10-01T05:27:35.464Z,66.22
2022-10-01T05:28:35.518Z,67.65
2022-10-01T05:29:35.469Z,68.42
2022-10-01T05:30:35.464Z,66.36
2022-10-01T05:31:35.672Z,67.49
2022-10-01T05:32:35.435Z,67.01
2022-10-01T05:33:35.419Z,66.85
2022-10-01T05:34:35.465Z,66.01
2022-10-01T05:35:35.397Z,66.07
2022-10-01T05:36:35.416Z,65.76
2022-10-01T05:37:35.377Z,65.68
2022-10-01T05:38:35.381Z,68.85
2022-10-01T05:39:35.373Z,67.81
2022-10-01T05:40:35.363Z,64.44
2022-10-01T05:41:35.593Z,67.41
2022-10-01T05:42:35.366Z,65.82
2022-10-01T05:43:35.324Z,66.60
2022-10-01T05:44:35.323Z,69.42
2022-10-01T05:45:35.389Z,66.63
2022-10-01T05:46:35.312Z,66.81
2022-10-01T05:47:35.324Z,69.03
2022-10-01T05:48:35.302Z,68.24
2022-10-01T05:49:35.277Z,69.52
2022-10-01T05:50:35.272Z,69.02
2022-10-01T05:51:35.536Z,66.32
2022-10-01T05:52:35.286Z,68.85
2022-10-01T05:53:35.266Z,67.92
2022-10-01T05:54:35.243Z,65.87
2022-10-01T05:55:35.250Z,66.54
2022-10-01T05:56:35.254Z,68.92
2022-10-01T05:57:35.208Z,70.38
2022-10-01T05:58:35.264Z,66.99
2022-10-01T05:59:35.281Z,65.99
2022-10-01T06:00:35.185Z,69.04
2022-10-01T06:01:35.447Z,68.64
2022-10-01T06:02:35.320Z,69.64
2022-10-01T06:03:35.157Z,69.46
2022-10-01T06:04:40.286Z,67.44
2022-10-01T06:05:36.249Z,68.70
2022-10-01T06:06:35.140Z,67.03
2022-10-01T06:07:35.133Z,67.66
2022-10-01T06:08:35.112Z,69.06
2022-10-01T06:09:35.198Z,66.07
2022-10-01T06:10:35.104Z,68.58
2022-10-01T06:11:35.451Z,66.90
2022-10-01T06:12:35.086Z,66.81
2022-10-01T06:13:35.067Z,69.35
2022-10-01T06:14:35.086Z,67.80
2022-10-01T06:15:35.080Z,68.27
2022-10-01T06:16:35.082Z,70.42
2022-10-01T06:17:35.043Z,68.33
2022-10-01T06:18:35.059Z,69.52
2022-10-01T06:19:35.047Z,68.83
2022-10-01T06:20:35.037Z,69.28
2022-10-01T06:21:35.189Z,68.30
2022-10-01T06:22:34.993Z,66.43
2022-10-01T06:23:34.978Z,68.07
2022-10-01T06:24:34.974Z,69.02
2022-10-01T06:25:34.995Z,68.13
2022-10-01T06:26:34.957Z,65.10
2022-10-01T06:27:34.967Z,69.40
2022-10-01T06:28:34.981Z,69.44
2022-10-01T06:29:34.940Z,69.29
2022-10-01T06:30:34.939Z,67.15
2022-10-01T06:31:35.264Z,70.18
2022-10-01T06:32:35.246Z,69.29
2022-10-01T06:33:34.912Z,68.56
2022-10-01T06:34:34.893Z,67.01
2022-10-01T06:35:34.899Z,68.83
2022-10-01T06:36:34.879Z,68.54
2022-10-01T06:37:34.879Z,68.79
2022-10-01T06:38:34.859Z,67.11
2022-10-01T06:39:34.854Z,69.28
2022-10-01T06:40:34.862Z,68.15
2022-10-01T06:41:35.247Z,68.34
2022-10-01T06:42:34.846Z,67.30
2022-10-01T06:43:34.823Z,66.11
2022-10-01T06:44:34.956Z,68.53
2022-10-01T06:45:34.841Z,68.78
2022-10-01T06:46:34.787Z,67.62
2022-10-01T06:47:34.781Z,69.01
2022-10-01T06:48:34.801Z,68.40
2022-10-01T06:49:34.752Z,67.84
2022-10-01T06:50:34.749Z,68.92
2022-10-01T06:51:35.097Z,67.63
2022-10-01T06:52:34.738Z,67.85
2022-10-01T06:53:34.746Z,67.72
2022-10-01T06:54:35.363Z,69.26
2022-10-01T06:55:34.702Z,69.81
2022-10-01T06:56:34.697Z,68.28
2022-10-01T06:57:34.691Z,68.68
2022-10-01T06:58:34.744Z,69.03
2022-10-01T06:59:34.780Z,69.68
2022-10-01T07:00:34.665Z,68.12
2022-10-01T07:01:34.930Z,68.76
2022-10-01T07:02:34.670Z,68.04
2022-10-01T07:03:34.636Z,68.14
2022-10-01T07:04:34.648Z,67.81
2022-10-01T07:05:34.634Z,69.46
2022-10-01T07:06:34.602Z,69.44
2022-10-01T07:07:34.801Z,69.58
2022-10-01T07:08:34.589Z,68.83
2022-10-01T07:09:34.601Z,67.94
2022-10-01T07:10:34.842Z,68.22
2022-10-01T07:11:34.999Z,67.21
2022-10-01T07:12:34.560Z,67.75
2022-10-01T07:13:34.550Z,66.37
2022-10-01T07:14:34.566Z,66.50
2022-10-01T07:15:34.550Z,66.86
2022-10-01T07:16:34.575Z,67.43
2022-10-01T07:17:34.570Z,67.06
2022-10-01T07:18:34.537Z,68.13
2022-10-01T07:19:34.486Z,68.59
2022-10-01T07:20:34.537Z,68.23
2022-10-01T07:21:34.765Z,67.25
2022-10-01T07:22:34.462Z,67.96
2022-10-01T07:23:34.461Z,66.29
2022-10-01T07:24:34.458Z,69.23
2022-10-01T07:25:34.448Z,68.61
2022-10-01T07:26:34.489Z,66.68
2022-10-01T07:27:34.462Z,69.18
2022-10-01T07:28:34.423Z,67.98
2022-10-01T07:29:34.484Z,68.91
2022-10-01T07:30:34.404Z,68.87
2022-10-01T07:31:34.786Z,70.35
2022-10-01T07:32:34.389Z,67.07
2022-10-01T07:33:34.395Z,68.11
2022-10-01T07:34:34.377Z,68.86
2022-10-01T07:35:34.371Z,69.57
2022-10-01T07:36:34.352Z,67.50
2022-10-01T07:37:34.351Z,68.95
2022-10-01T07:38:34.365Z,68.42
2022-10-01T07:39:34.333Z,68.85
2022-10-01T07:40:34.342Z,69.50
2022-10-01T07:41:34.602Z,67.27
2022-10-01T07:42:34.313Z,69.74
2022-10-01T07:43:34.298Z,69.72
2022-10-01T07:44:34.293Z,66.23
2022-10-01T07:45:34.306Z,69.44
2022-10-01T07:46:34.946Z,67.71
2022-10-01T07:47:34.265Z,67.40
2022-10-01T07:48:34.274Z,67.93
2022-10-01T07:49:34.241Z,67.38
2022-10-01T07:50:34.237Z,68.30
2022-10-01T07:51:34.467Z,69.05
2022-10-01T07:52:34.292Z,67.73
2022-10-01T07:53:34.237Z,69.87
2022-10-01T07:54:34.200Z,67.04
2022-10-01T07:55:34.188Z,69.18
2022-10-01T07:56:34.178Z,69.76
2022-10-01T07:57:34.183Z,67.94
2022-10-01T07:58:34.181Z,68.12
2022-10-01T07:59:34.155Z,68.21
2022-10-01T08:00:34.171Z,67.76
2022-10-01T08:01:34.540Z,68.33
2022-10-01T08:02:34.241Z,68.50
2022-10-01T08:03:34.128Z,66.65
2022-10-01T08:04:34.119Z,67.24
2022-10-01T08:05:34.259Z,68.74
2022-10-01T08:06:34.152Z,68.06
2022-10-01T08:07:34.114Z,69.61
2022-10-01T08:08:34.081Z,67.79
2022-10-01T08:09:34.068Z,65.01
2022-10-01T08:10:34.087Z,67.76
2022-10-01T08:11:34.305Z,68.58
2022-10-01T08:12:34.048Z,68.33
2022-10-01T08:13:34.049Z,68.64
2022-10-01T08:14:34.027Z,67.12
2022-10-01T08:15:34.024Z,66.97
2022-10-01T08:16:34.074Z,67.75
2022-10-01T08:17:34.004Z,68.03
2022-10-01T08:18:41.510Z,68.11
2022-10-01T08:19:33.983Z,68.08
2022-10-01T08:20:33.980Z,67.51
2022-10-01T08:21:34.283Z,67.39
2022-10-01T08:22:37.525Z,68.67
2022-10-01T08:23:34.993Z,69.14
2022-10-01T08:24:33.939Z,68.95
2022-10-01T08:25:33.934Z,68.56
2022-10-01T08:26:33.914Z,68.67
2022-10-01T08:27:34.052Z,67.54
2022-10-01T08:28:33.909Z,68.92
2022-10-01T08:29:33.905Z,69.26
2022-10-01T08:30:33.883Z,67.34
2022-10-01T08:31:34.117Z,68.01
2022-10-01T08:32:33.886Z,66.64
2022-10-01T08:33:33.879Z,67.07
2022-10-01T08:34:33.847Z,68.77
2022-10-01T08:35:33.899Z,67.62
2022-10-01T08:36:33.837Z,67.86
2022-10-01T08:37:33.825Z,67.46
2022-10-01T08:38:33.833Z,67.45
2022-10-01T08:39:33.807Z,68.11
2022-10-01T08:40:33.797Z,66.63
2022-10-01T08:41:33.800Z,68.53
2022-10-01T08:42:33.785Z,67.01
2022-10-01T08:43:33.816Z,64.58
2022-10-01T08:44:33.774Z,67.39
2022-10-01T08:45:33.809Z,66.59
2022-10-01T08:46:34.372Z,67.89
2022-10-01T08:47:33.741Z,67.74
2022-10-01T08:48:33.744Z,66.88
2022-10-01T08:49:33.749Z,66.55
2022-10-01T08:50:33.714Z,66.18
2022-10-01T08:51:33.970Z,65.74
2022-10-01T08:52:33.700Z,66.59
2022-10-01T08:53:33.701Z,65.49
2022-10-01T08:54:33.680Z,64.36
2022-10-01T08:55:33.704Z,66.51
2022-10-01T08:56:33.728Z,67.30
2022-10-01T08:57:33.665Z,66.84
2022-10-01T08:58:33.845Z,65.12
2022-10-01T08:59:33.646Z,64.59
2022-10-01T09:00:33.654Z,66.11
2022-10-01T09:01:33.965Z,65.09
2022-10-01T09:02:33.668Z,64.25
2022-10-01T09:03:33.610Z,64.94
2022-10-01T09:04:33.645Z,67.31
2022-10-01T09:05:33.604Z,66.05
2022-10-01T09:06:33.582Z,66.58
2022-10-01T09:07:33.622Z,65.70
2022-10-01T09:08:33.580Z,66.12
2022-10-01T09:09:33.568Z,65.54
2022-10-01T09:10:33.545Z,64.66
2022-10-01T09:11:33.885Z,66.19
2022-10-01T09:12:33.527Z,64.53
2022-10-01T09:13:33.557Z,64.44
2022-10-01T09:14:33.511Z,65.13
2022-10-01T09:15:33.516Z,66.95
2022-10-01T09:16:33.580Z,64.24
2022-10-01T09:17:33.505Z,65.14
2022-10-01T09:18:33.472Z,66.53
2022-10-01T09:19:33.483Z,64.68
2022-10-01T09:20:33.453Z,64.91
2022-10-01T09:21:33.778Z,66.05
2022-10-01T09:22:33.451Z,65.99
2022-10-01T09:23:33.482Z,64.68
2022-10-01T09:24:33.444Z,66.33
2022-10-01T09:25:33.419Z,62.81
2022-10-01T09:26:33.419Z,65.84
2022-10-01T09:27:33.575Z,65.41
2022-10-01T09:28:33.590Z,64.81
2022-10-01T09:29:33.409Z,65.43
2022-10-01T09:30:33.382Z,65.13
2022-10-01T09:31:33.709Z,64.96
2022-10-01T09:32:33.421Z,66.23
2022-10-01T09:33:33.503Z,63.35
2022-10-01T09:34:33.356Z,64.78
2022-10-01T09:35:33.352Z,64.68
2022-10-01T09:36:33.349Z,65.17
2022-10-01T09:37:33.324Z,65.67
2022-10-01T09:38:33.424Z,64.92
2022-10-01T09:39:33.297Z,66.61
2022-10-01T09:40:33.286Z,66.29
2022-10-01T09:41:33.802Z,65.04
2022-10-01T09:42:33.272Z,64.81
2022-10-01T09:43:33.269Z,65.12
2022-10-01T09:44:33.264Z,64.74
2022-10-01T09:45:33.264Z,65.55
2022-10-01T09:46:33.260Z,64.17
2022-10-01T09:47:33.252Z,64.41
2022-10-01T09:48:33.270Z,66.35
2022-10-01T09:49:33.231Z,64.61
2022-10-01T09:50:33.216Z,64.71
2022-10-01T09:51:35.901Z,65.17
2022-10-01T09:52:34.216Z,63.14
2022-10-01T09:53:33.212Z,65.61
2022-10-01T09:54:33.179Z,65.15
2022-10-01T09:55:33.169Z,65.99
2022-10-01T09:56:33.159Z,65.76
2022-10-01T09:57:33.157Z,63.87
2022-10-01T09:58:33.194Z,65.61
2022-10-01T09:59:33.131Z,65.65
2022-10-01T10:00:33.131Z,65.34
2022-10-01T10:01:33.409Z,66.54
2022-10-01T10:02:33.263Z,67.44
2022-10-01T10:03:33.279Z,66.44
2022-10-01T10:04:33.175Z,65.32
2022-10-01T10:05:33.077Z,64.35
2022-10-01T10:06:33.502Z,64.36
2022-10-01T10:07:33.083Z,64.50
2022-10-01T10:08:33.090Z,64.60
2022-10-01T10:09:33.049Z,65.24
2022-10-01T10:10:33.075Z,67.00
2022-10-01T10:11:33.446Z,66.53
2022-10-01T10:12:33.062Z,66.19
2022-10-01T10:13:33.032Z,65.57
2022-10-01T10:14:33.033Z,65.91
2022-10-01T10:15:33.216Z,65.43
2022-10-01T10:16:33.361Z,65.90
2022-10-01T10:17:33.075Z,65.62
2022-10-01T10:18:32.978Z,65.51
2022-10-01T10:19:32.994Z,64.93
2022-10-01T10:20:32.970Z,66.27
2022-10-01T10:21:32.952Z,66.18
2022-10-01T10:22:32.966Z,66.02
2022-10-01T10:23:32.950Z,66.65
2022-10-01T10:24:32.936Z,64.60
2022-10-01T10:25:32.948Z,65.43
2022-10-01T10:26:33.244Z,64.54
2022-10-01T10:27:32.955Z,65.38
2022-10-01T10:28:37.593Z,65.78
2022-10-01T10:29:33.922Z,66.42
2022-10-01T10:30:32.883Z,64.96
2022-10-01T10:31:32.938Z,65.90
2022-10-01T10:32:32.880Z,65.53
2022-10-01T10:33:32.878Z,64.37
2022-10-01T10:34:32.839Z,64.27
2022-10-01T10:35:32.838Z,64.46
2022-10-01T10:36:33.197Z,64.41
2022-10-01T10:37:32.828Z,64.16
2022-10-01T10:38:32.831Z,64.81
2022-10-01T10:39:32.876Z,62.92
2022-10-01T10:40:32.807Z,64.76
2022-10-01T10:41:33.142Z,65.21
2022-10-01T10:42:32.818Z,65.68
2022-10-01T10:43:32.784Z,66.58
2022-10-01T10:44:32.765Z,66.20
2022-10-01T10:45:32.767Z,63.63
2022-10-01T10:46:32.817Z,65.58
2022-10-01T10:47:32.746Z,64.80
2022-10-01T10:48:32.752Z,67.03
2022-10-01T10:49:32.730Z,65.07
2022-10-01T10:50:32.713Z,65.53
2022-10-01T10:51:33.058Z,65.22
2022-10-01T10:52:32.777Z,63.10
2022-10-01T10:53:32.701Z,63.73
2022-10-01T10:54:32.717Z,66.23
2022-10-01T10:55:32.694Z,64.88
2022-10-01T10:56:33.008Z,65.44
2022-10-01T10:57:32.672Z,65.55
2022-10-01T10:58:32.673Z,64.11
2022-10-01T10:59:32.672Z,64.15
2022-10-01T11:00:32.655Z,64.73
2022-10-01T11:01:32.959Z,65.41
2022-10-01T11:02:32.677Z,65.08
2022-10-01T11:03:32.609Z,65.85
2022-10-01T11:04:32.599Z,66.60
2022-10-01T11:05:32.627Z,66.30
2022-10-01T11:06:32.928Z,65.39
2022-10-01T11:07:32.589Z,65.31
2022-10-01T11:08:32.563Z,65.86
2022-10-01T11:09:32.561Z,66.49
2022-10-01T11:10:32.567Z,67.04
2022-10-01T11:11:32.570Z,65.99
2022-10-01T11:12:32.549Z,64.89
2022-10-01T11:13:32.516Z,64.24
2022-10-01T11:14:32.519Z,65.16
2022-10-01T11:15:32.563Z,64.10
2022-10-01T11:16:32.875Z,65.80
2022-10-01T11:17:32.491Z,65.86
2022-10-01T11:18:32.479Z,65.17
2022-10-01T11:19:32.476Z,64.81
2022-10-01T11:20:32.470Z,65.20
2022-10-01T11:21:32.471Z,63.79
2022-10-01T11:22:32.444Z,64.70
2022-10-01T11:23:32.464Z,64.22
2022-10-01T11:24:32.458Z,62.71
2022-10-01T11:25:32.425Z,65.70
2022-10-01T11:26:32.713Z,62.29
2022-10-01T11:27:32.433Z,63.10
2022-10-01T11:28:32.493Z,63.71
2022-10-01T11:29:32.392Z,63.72
2022-10-01T11:30:32.385Z,65.70
2022-10-01T11:31:32.404Z,64.07
2022-10-01T11:32:32.367Z,64.05
2022-10-01T11:33:32.372Z,62.38
2022-10-01T11:34:32.347Z,63.98
2022-10-01T11:35:32.861Z,64.30
2022-10-01T11:36:32.637Z,61.57
2022-10-01T11:37:32.406Z,64.20
2022-10-01T11:38:32.547Z,62.60
2022-10-01T11:39:32.325Z,63.75
2022-10-01T11:40:32.414Z,65.14
2022-10-01T11:41:32.315Z,65.50
2022-10-01T11:42:32.292Z,63.44
2022-10-01T11:43:32.317Z,61.33
2022-10-01T11:44:32.296Z,62.87
2022-10-01T11:45:40.893Z,63.15
2022-10-01T11:46:34.130Z,63.45
2022-10-01T11:47:32.554Z,63.24
2022-10-01T11:48:32.242Z,62.59
2022-10-01T11:49:32.241Z,64.11
2022-10-01T11:50:36.143Z,64.58
2022-10-01T11:51:33.209Z,63.84
2022-10-01T11:52:32.203Z,64.00
2022-10-01T11:53:32.200Z,63.74
2022-10-01T11:54:32.263Z,64.72
2022-10-01T11:55:32.202Z,64.94
2022-10-01T11:56:32.325Z,64.82
2022-10-01T11:57:32.164Z,62.91
2022-10-01T11:58:32.146Z,64.02
2022-10-01T11:59:32.143Z,65.89
2022-10-01T12:00:32.132Z,64.15
2022-10-01T12:01:32.225Z,65.20
2022-10-01T12:02:32.112Z,65.60
2022-10-01T12:03:32.117Z,64.59
2022-10-01T12:04:32.105Z,63.23
2022-10-01T12:05:32.199Z,63.55
2022-10-01T12:06:34.234Z,65.57
2022-10-01T12:07:32.087Z,63.87
2022-10-01T12:08:32.079Z,65.51
2022-10-01T12:09:32.063Z,65.07
2022-10-01T12:10:32.063Z,63.56
2022-10-01T12:11:32.078Z,64.86
2022-10-01T12:12:32.041Z,59.66
2022-10-01T12:13:32.022Z,63.76
2022-10-01T12:14:32.022Z,64.62
2022-10-01T12:15:32.051Z,65.80
2022-10-01T12:16:32.110Z,63.75
2022-10-01T12:17:32.010Z,65.26
2022-10-01T12:18:31.987Z,64.45
2022-10-01T12:19:32.063Z,65.05
2022-10-01T12:20:31.968Z,65.70
2022-10-01T12:21:32.007Z,66.94
2022-10-01T12:22:31.971Z,66.72
2022-10-01T12:23:31.944Z,64.54
2022-10-01T12:24:31.959Z,64.43
2022-10-01T12:25:31.960Z,64.47
2022-10-01T12:26:32.243Z,67.71
2022-10-01T12:27:31.932Z,66.26
2022-10-01T12:28:32.037Z,67.80
2022-10-01T12:29:31.902Z,68.02
2022-10-01T12:30:31.889Z,66.82
2022-10-01T12:31:31.958Z,67.24
2022-10-01T12:32:31.873Z,67.32
2022-10-01T12:33:31.915Z,68.24
2022-10-01T12:34:31.855Z,67.98
2022-10-01T12:35:31.865Z,66.92
2022-10-01T12:36:32.123Z,67.65
2022-10-01T12:37:31.832Z,67.16
2022-10-01T12:38:31.825Z,67.62
2022-10-01T12:39:31.836Z,67.88
2022-10-01T12:40:31.814Z,68.47
2022-10-01T12:41:31.827Z,67.05
2022-10-01T12:42:31.795Z,65.55
2022-10-01T12:43:31.840Z,65.89
2022-10-01T12:44:31.775Z,65.62
2022-10-01T12:45:31.781Z,64.84
2022-10-01T12:46:32.098Z,64.56
2022-10-01T12:47:31.757Z,65.33
2022-10-01T12:48:31.736Z,65.67
2022-10-01T12:49:31.756Z,65.58
2022-10-01T12:50:31.769Z,64.84
2022-10-01T12:51:31.819Z,64.29
2022-10-01T12:52:31.697Z,62.78